sensor_id;sensor_type;location;lat;lon;timestamp;pressure;altitude;pressure_sealevel;temperature;humidity
53916;BME280;39827;49.652;18.770;2023-04-02T00:01:47;95395.38;;;7.50;100.00
53916;BME280;39827;49.652;18.770;2023-04-02T00:06:40;95398.25;;;7.75;100.00
53916;BME280;39827;49.652;18.770;2023-04-02T00:11:40;95392.44;;;7.78;100.00
53916;BME280;39827;49.652;18.770;2023-04-02T00:14:32;95394.81;;;7.79;100.00
53916;BME280;39827;49.652;18.770;2023-04-02T00:17:00;95404.03;;;7.72;100.00
53916;BME280;39827;49.652;18.770;2023-04-02T00:22:19;95400.31;;;7.88;100.00
53916;BME280;39827;49.652;18.770;2023-04-02T00:24:47;95394.81;;;7.79;100.00
53916;BME280;39827;49.652;18.770;2023-04-02T00:27:14;95392.72;;;7.71;100.00
53916;BME280;39827;49.652;18.770;2023-04-02T00:29:51;95400.34;;;7.78;100.00
53916;BME280;39827;49.652;18.770;2023-04-02T00:32:22;95406.13;;;7.85;100.00
53916;BME280;39827;49.652;18.770;2023-04-02T00:34:48;95401.38;;;7.92;100.00
53916;BME280;39827;49.652;18.770;2023-04-02T00:37:17;95396.88;;;7.98;100.00
53916;BME280;39827;49.652;18.770;2023-04-02T00:39:54;95399.78;;;7.97;100.00
53916;BME280;39827;49.652;18.770;2023-04-02T00:42:22;95402.66;;;8.00;100.00
53916;BME280;39827;49.652;18.770;2023-04-02T00:44:49;95393.97;;;8.05;100.00
53916;BME280;39827;49.652;18.770;2023-04-02T00:47:21;95390.03;;;8.02;100.00
53916;BME280;39827;49.652;18.770;2023-04-02T00:49:53;95407.94;;;7.95;100.00
53916;BME280;39827;49.652;18.770;2023-04-02T00:52:24;95404.53;;;7.84;100.00
53916;BME280;39827;49.652;18.770;2023-04-02T00:54:58;95409.25;;;8.03;100.00
53916;BME280;39827;49.652;18.770;2023-04-02T00:57:25;95412.44;;;8.00;100.00
53916;BME280;39827;49.652;18.770;2023-04-02T01:02:22;95418.75;;;8.04;100.00
53916;BME280;39827;49.652;18.770;2023-04-02T01:04:55;95417.97;;;7.98;100.00
53916;BME280;39827;49.652;18.770;2023-04-02T01:07:27;95416.59;;;8.11;100.00
53916;BME280;39827;49.652;18.770;2023-04-02T01:15:41;95418.50;;;8.05;100.00
53916;BME280;39827;49.652;18.770;2023-04-02T01:26:57;95425.56;;;8.15;100.00
53916;BME280;39827;49.652;18.770;2023-04-02T01:29:28;95419.28;;;8.01;100.00
53916;BME280;39827;49.652;18.770;2023-04-02T01:31:59;95425.34;;;8.06;100.00
53916;BME280;39827;49.652;18.770;2023-04-02T01:34:26;95422.16;;;8.04;100.00
53916;BME280;39827;49.652;18.770;2023-04-02T01:42:38;95437.16;;;8.19;100.00
53916;BME280;39827;49.652;18.770;2023-04-02T01:45:16;95435.59;;;8.13;100.00
53916;BME280;39827;49.652;18.770;2023-04-02T01:47:44;95438.50;;;8.12;100.00
53916;BME280;39827;49.652;18.770;2023-04-02T01:52:45;95438.22;;;8.13;100.00
53916;BME280;39827;49.652;18.770;2023-04-02T01:55:17;95438.47;;;8.17;100.00
53916;BME280;39827;49.652;18.770;2023-04-02T01:57:45;95441.94;;;8.12;100.00
53916;BME280;39827;49.652;18.770;2023-04-02T02:00:14;95447.97;;;8.18;100.00
53916;BME280;39827;49.652;18.770;2023-04-02T02:02:41;95438.47;;;8.17;100.00
53916;BME280;39827;49.652;18.770;2023-04-02T02:05:12;95439.00;;;8.14;100.00
53916;BME280;39827;49.652;18.770;2023-04-02T02:07:38;95438.25;;;7.92;100.00
53916;BME280;39827;49.652;18.770;2023-04-02T02:10:06;95441.16;;;8.01;100.00
53916;BME280;39827;49.652;18.770;2023-04-02T02:12:34;95438.56;;;7.80;100.00
53916;BME280;39827;49.652;18.770;2023-04-02T02:14:59;95444.31;;;7.98;100.00
53916;BME280;39827;49.652;18.770;2023-04-02T02:17:29;95437.47;;;8.02;100.00
53916;BME280;39827;49.652;18.770;2023-04-02T02:19:59;95435.88;;;8.06;100.00
53916;BME280;39827;49.652;18.770;2023-04-02T02:22:34;95446.94;;;8.08;100.00
53916;BME280;39827;49.652;18.770;2023-04-02T02:25:05;95440.09;;;8.07;100.00
53916;BME280;39827;49.652;18.770;2023-04-02T02:30:31;95439.81;;;8.14;100.00
53916;BME280;39827;49.652;18.770;2023-04-02T02:33:24;95455.88;;;8.18;100.00
53916;BME280;39827;49.652;18.770;2023-04-02T02:35:57;95449.56;;;8.14;100.00
53916;BME280;39827;49.652;18.770;2023-04-02T02:38:28;95456.41;;;8.20;100.00
53916;BME280;39827;49.652;18.770;2023-04-02T02:40:57;95460.88;;;8.25;100.00
53916;BME280;39827;49.652;18.770;2023-04-02T02:43:25;95457.47;;;8.08;100.00
53916;BME280;39827;49.652;18.770;2023-04-02T02:45:52;95457.47;;;8.14;100.00
53916;BME280;39827;49.652;18.770;2023-04-02T02:48:22;95460.91;;;8.14;100.00
53916;BME280;39827;49.652;18.770;2023-04-02T02:50:49;95464.59;;;8.18;100.00
53916;BME280;39827;49.652;18.770;2023-04-02T02:53:21;95459.06;;;8.15;100.00
53916;BME280;39827;49.652;18.770;2023-04-02T02:55:50;95472.75;;;8.22;100.00
53916;BME280;39827;49.652;18.770;2023-04-02T02:58:29;95472.50;;;8.18;100.00
53916;BME280;39827;49.652;18.770;2023-04-02T03:00:56;95468.56;;;8.16;100.00
53916;BME280;39827;49.652;18.770;2023-04-02T03:03:25;95469.59;;;8.04;100.00
53916;BME280;39827;49.652;18.770;2023-04-02T03:05:55;95480.97;;;8.00;100.00
53916;BME280;39827;49.652;18.770;2023-04-02T03:08:31;95474.13;;;7.99;100.00
53916;BME280;39827;49.652;18.770;2023-04-02T03:11:08;95471.22;;;7.95;100.00
53916;BME280;39827;49.652;18.770;2023-04-02T03:13:36;95475.72;;;7.94;100.00
53916;BME280;39827;49.652;18.770;2023-04-02T03:16:13;95473.03;;;8.10;100.00
53916;BME280;39827;49.652;18.770;2023-04-02T03:18:54;95476.22;;;8.02;100.00
53916;BME280;39827;49.652;18.770;2023-04-02T03:21:32;95480.72;;;8.01;100.00
53916;BME280;39827;49.652;18.770;2023-04-02T03:24:02;95481.22;;;8.03;100.00
53916;BME280;39827;49.652;18.770;2023-04-02T03:26:34;95487.03;;;8.05;100.00
53916;BME280;39827;49.652;18.770;2023-04-02T03:31:47;95479.09;;;8.00;100.00
53916;BME280;39827;49.652;18.770;2023-04-02T03:34:21;95489.13;;;7.98;100.00
53916;BME280;39827;49.652;18.770;2023-04-02T03:37:00;95488.06;;;8.04;100.00
53916;BME280;39827;49.652;18.770;2023-04-02T03:39:36;95490.47;;;7.90;100.00
53916;BME280;39827;49.652;18.770;2023-04-02T03:44:36;95504.13;;;8.03;100.00
53916;BME280;39827;49.652;18.770;2023-04-02T03:47:13;95490.19;;;8.02;100.00
53916;BME280;39827;49.652;18.770;2023-04-02T03:49:47;95490.72;;;7.89;100.00
53916;BME280;39827;49.652;18.770;2023-04-02T03:52:26;95489.41;;;7.91;100.00
53916;BME280;39827;49.652;18.770;2023-04-02T03:54:56;95503.88;;;8.04;100.00
53916;BME280;39827;49.652;18.770;2023-04-02T03:57:42;95508.63;;;8.02;100.00
53916;BME280;39827;49.652;18.770;2023-04-02T04:00:18;95498.88;;;7.98;100.00
53916;BME280;39827;49.652;18.770;2023-04-02T04:05:23;95504.44;;;8.01;100.00
53916;BME280;39827;49.652;18.770;2023-04-02T04:07:52;95501.25;;;7.99;100.00
53916;BME280;39827;49.652;18.770;2023-04-02T04:10:26;95514.69;;;7.98;100.00
53916;BME280;39827;49.652;18.770;2023-04-02T04:12:56;95523.91;;;8.00;100.00
53916;BME280;39827;49.652;18.770;2023-04-02T04:15:30;95521.56;;;8.04;100.00
53916;BME280;39827;49.652;18.770;2023-04-02T04:20:48;95523.94;;;7.95;100.00
53916;BME280;39827;49.652;18.770;2023-04-02T04:23:25;95520.78;;;7.98;100.00
53916;BME280;39827;49.652;18.770;2023-04-02T04:26:51;95531.81;;;8.00;100.00
53916;BME280;39827;49.652;18.770;2023-04-02T04:29:24;95521.81;;;8.13;100.00
53916;BME280;39827;49.652;18.770;2023-04-02T04:31:51;95534.47;;;8.21;100.00
53916;BME280;39827;49.652;18.770;2023-04-02T04:34:38;95529.69;;;8.18;100.00
53916;BME280;39827;49.652;18.770;2023-04-02T04:37:16;95538.69;;;8.12;100.00
53916;BME280;39827;49.652;18.770;2023-04-02T04:39:58;95536.31;;;8.05;100.00
53916;BME280;39827;49.652;18.770;2023-04-02T04:42:32;95543.69;;;7.98;100.00
53916;BME280;39827;49.652;18.770;2023-04-02T04:47:58;95550.28;;;8.00;100.00
53916;BME280;39827;49.652;18.770;2023-04-02T04:50:32;95552.13;;;8.05;100.00
53916;BME280;39827;49.652;18.770;2023-04-02T04:53:06;95558.19;;;8.21;100.00
53916;BME280;39827;49.652;18.770;2023-04-02T04:55:42;95548.69;;;8.25;100.00
53916;BME280;39827;49.652;18.770;2023-04-02T05:03:19;95562.94;;;8.29;100.00
53916;BME280;39827;49.652;18.770;2023-04-02T05:05:46;95552.94;;;8.11;100.00
53916;BME280;39827;49.652;18.770;2023-04-02T05:08:16;95560.56;;;8.07;100.00
53916;BME280;39827;49.652;18.770;2023-04-02T05:10:54;95556.06;;;8.13;100.00
53916;BME280;39827;49.652;18.770;2023-04-02T05:13:26;95557.69;;;8.19;100.00
53916;BME280;39827;49.652;18.770;2023-04-02T05:16:04;95558.72;;;8.28;100.00
53916;BME280;39827;49.652;18.770;2023-04-02T05:18:40;95552.91;;;8.26;100.00
53916;BME280;39827;49.652;18.770;2023-04-02T05:21:19;95558.72;;;8.23;100.00
53916;BME280;39827;49.652;18.770;2023-04-02T05:26:38;95565.59;;;8.19;100.00
53916;BME280;39827;49.652;18.770;2023-04-02T05:29:28;95560.28;;;8.08;100.00
53916;BME280;39827;49.652;18.770;2023-04-02T05:34:31;95575.34;;;8.13;100.00
53916;BME280;39827;49.652;18.770;2023-04-02T05:36:58;95570.84;;;8.24;100.00
53916;BME280;39827;49.652;18.770;2023-04-02T05:39:25;95569.00;;;8.19;100.00
53916;BME280;39827;49.652;18.770;2023-04-02T05:42:03;95565.31;;;8.20;100.00
53916;BME280;39827;49.652;18.770;2023-04-02T05:44:31;95578.78;;;8.19;100.00
53916;BME280;39827;49.652;18.770;2023-04-02T05:47:09;95583.50;;;8.38;100.00
53916;BME280;39827;49.652;18.770;2023-04-02T05:52:33;95575.84;;;8.52;100.00
53916;BME280;39827;49.652;18.770;2023-04-02T05:57:50;95585.88;;;8.55;100.00
53916;BME280;39827;49.652;18.770;2023-04-02T06:00:23;95590.38;;;8.54;100.00
53916;BME280;39827;49.652;18.770;2023-04-02T06:03:23;95587.19;;;8.63;100.00
53916;BME280;39827;49.652;18.770;2023-04-02T06:05:51;95592.19;;;8.43;100.00
53916;BME280;39827;49.652;18.770;2023-04-02T06:08:38;95590.88;;;8.62;100.00
53916;BME280;39827;49.652;18.770;2023-04-02T06:11:11;95590.34;;;8.75;100.00
53916;BME280;39827;49.652;18.770;2023-04-02T06:13:38;95586.91;;;8.69;100.00
53916;BME280;39827;49.652;18.770;2023-04-02T06:16:04;95594.28;;;8.67;100.00
53916;BME280;39827;49.652;18.770;2023-04-02T06:18:33;95600.34;;;8.73;100.00
53916;BME280;39827;49.652;18.770;2023-04-02T06:20:59;95601.41;;;8.72;100.00
53916;BME280;39827;49.652;18.770;2023-04-02T06:23:40;95597.69;;;8.78;100.00
53916;BME280;39827;49.652;18.770;2023-04-02T06:26:32;95613.53;;;8.78;100.00
53916;BME280;39827;49.652;18.770;2023-04-02T06:31:46;95612.47;;;8.90;100.00
53916;BME280;39827;49.652;18.770;2023-04-02T06:34:18;95621.97;;;8.85;100.00
53916;BME280;39827;49.652;18.770;2023-04-02T06:36:45;95624.34;;;8.77;100.00
53916;BME280;39827;49.652;18.770;2023-04-02T06:39:19;95620.69;;;8.78;100.00
53916;BME280;39827;49.652;18.770;2023-04-02T06:42:18;95638.34;;;8.93;100.00
53916;BME280;39827;49.652;18.770;2023-04-02T06:44:46;95637.84;;;8.75;100.00
53916;BME280;39827;49.652;18.770;2023-04-02T06:47:36;95647.88;;;8.73;100.00
53916;BME280;39827;49.652;18.770;2023-04-02T06:50:40;95661.59;;;8.59;100.00
53916;BME280;39827;49.652;18.770;2023-04-02T06:53:25;95661.56;;;8.28;100.00
53916;BME280;39827;49.652;18.770;2023-04-02T06:58:29;95687.91;;;8.18;100.00
53916;BME280;39827;49.652;18.770;2023-04-02T07:00:55;95689.22;;;7.94;100.00
53916;BME280;39827;49.652;18.770;2023-04-02T07:03:26;95697.13;;;8.00;100.00
53916;BME280;39827;49.652;18.770;2023-04-02T07:05:53;95710.50;;;7.82;100.00
53916;BME280;39827;49.652;18.770;2023-04-02T07:08:20;95704.28;;;7.40;100.00
53916;BME280;39827;49.652;18.770;2023-04-02T07:10:48;95713.63;;;7.15;100.00
53916;BME280;39827;49.652;18.770;2023-04-02T07:13:21;95724.06;;;7.00;100.00
53916;BME280;39827;49.652;18.770;2023-04-02T07:15:50;95731.69;;;6.96;100.00
53916;BME280;39827;49.652;18.770;2023-04-02T07:18:32;95740.09;;;6.60;100.00
53916;BME280;39827;49.652;18.770;2023-04-02T07:20:58;95741.38;;;6.58;100.00
53916;BME280;39827;49.652;18.770;2023-04-02T07:23:24;95752.03;;;6.46;100.00
53916;BME280;39827;49.652;18.770;2023-04-02T07:25:54;95760.25;;;6.49;100.00
53916;BME280;39827;49.652;18.770;2023-04-02T07:28:21;95764.59;;;6.11;100.00
53916;BME280;39827;49.652;18.770;2023-04-02T07:30:47;95769.75;;;6.28;100.00
53916;BME280;39827;49.652;18.770;2023-04-02T07:33:14;95792.03;;;6.48;100.00
53916;BME280;39827;49.652;18.770;2023-04-02T07:35:40;95787.50;;;6.43;100.00
53916;BME280;39827;49.652;18.770;2023-04-02T07:38:06;95785.94;;;6.42;100.00
53916;BME280;39827;49.652;18.770;2023-04-02T07:40:31;95808.91;;;6.52;100.00
53916;BME280;39827;49.652;18.770;2023-04-02T07:43:00;95804.81;;;6.39;100.00
53916;BME280;39827;49.652;18.770;2023-04-02T07:45:26;95817.91;;;6.56;100.00
53916;BME280;39827;49.652;18.770;2023-04-02T07:47:52;95824.34;;;6.71;100.00
53916;BME280;39827;49.652;18.770;2023-04-02T07:50:17;95826.72;;;6.72;100.00
53916;BME280;39827;49.652;18.770;2023-04-02T07:52:43;95831.06;;;6.84;100.00
53916;BME280;39827;49.652;18.770;2023-04-02T07:55:09;95832.34;;;6.81;100.00
53916;BME280;39827;49.652;18.770;2023-04-02T07:57:52;95844.28;;;6.94;100.00
53916;BME280;39827;49.652;18.770;2023-04-02T08:00:19;95852.88;;;6.57;100.00
53916;BME280;39827;49.652;18.770;2023-04-02T08:02:45;95846.97;;;6.44;100.00
53916;BME280;39827;49.652;18.770;2023-04-02T08:05:10;95855.00;;;6.60;100.00
53916;BME280;39827;49.652;18.770;2023-04-02T08:07:36;95864.63;;;6.49;100.00
53916;BME280;39827;49.652;18.770;2023-04-02T08:10:04;95860.94;;;6.72;100.00
53916;BME280;39827;49.652;18.770;2023-04-02T08:12:30;95870.41;;;6.73;100.00
53916;BME280;39827;49.652;18.770;2023-04-02T08:14:56;95880.88;;;6.68;100.00
53916;BME280;39827;49.652;18.770;2023-04-02T08:17:25;95884.13;;;6.75;100.00
53916;BME280;39827;49.652;18.770;2023-04-02T08:19:56;95875.94;;;6.49;100.00
53916;BME280;39827;49.652;18.770;2023-04-02T08:22:30;95902.59;;;6.58;100.00
53916;BME280;39827;49.652;18.770;2023-04-02T08:24:57;95898.03;;;6.48;100.00
53916;BME280;39827;49.652;18.770;2023-04-02T08:27:23;95909.56;;;6.47;100.00
53916;BME280;39827;49.652;18.770;2023-04-02T08:29:48;95897.13;;;6.37;100.00
53916;BME280;39827;49.652;18.770;2023-04-02T08:32:14;95904.34;;;6.08;100.00
53916;BME280;39827;49.652;18.770;2023-04-02T08:34:41;95919.88;;;6.27;100.00
53916;BME280;39827;49.652;18.770;2023-04-02T08:37:08;95915.25;;;6.39;100.00
53916;BME280;39827;49.652;18.770;2023-04-02T08:39:35;95928.41;;;6.61;100.00
53916;BME280;39827;49.652;18.770;2023-04-02T08:42:15;95935.06;;;6.69;100.00
53916;BME280;39827;49.652;18.770;2023-04-02T08:47:37;95937.84;;;6.80;100.00
53916;BME280;39827;49.652;18.770;2023-04-02T08:50:29;95933.50;;;6.68;100.00
53916;BME280;39827;49.652;18.770;2023-04-02T08:52:56;95943.59;;;6.76;100.00
53916;BME280;39827;49.652;18.770;2023-04-02T08:55:38;95941.63;;;6.89;100.00
53916;BME280;39827;49.652;18.770;2023-04-02T09:00:59;95955.09;;;6.70;100.00
53916;BME280;39827;49.652;18.770;2023-04-02T09:03:39;95970.09;;;6.92;100.00
53916;BME280;39827;49.652;18.770;2023-04-02T09:06:12;95962.88;;;6.82;100.00
53916;BME280;39827;49.652;18.770;2023-04-02T09:08:44;95980.97;;;6.56;100.00
53916;BME280;39827;49.652;18.770;2023-04-02T09:11:47;95980.31;;;6.66;100.00
53916;BME280;39827;49.652;18.770;2023-04-02T09:17:22;95982.50;;;6.12;100.00
53916;BME280;39827;49.652;18.770;2023-04-02T09:22:33;96006.31;;;6.06;100.00
53916;BME280;39827;49.652;18.770;2023-04-02T09:25:16;96005.19;;;6.02;100.00
53916;BME280;39827;49.652;18.770;2023-04-02T09:27:49;96007.78;;;5.84;100.00
53916;BME280;39827;49.652;18.770;2023-04-02T09:33:03;96014.31;;;5.82;100.00
53916;BME280;39827;49.652;18.770;2023-04-02T09:35:54;96028.59;;;6.20;100.00
53916;BME280;39827;49.652;18.770;2023-04-02T09:38:24;96033.34;;;6.41;100.00
53916;BME280;39827;49.652;18.770;2023-04-02T09:43:28;96030.66;;;6.35;100.00
53916;BME280;39827;49.652;18.770;2023-04-02T09:48:34;96052.00;;;6.39;98.92
53916;BME280;39827;49.652;18.770;2023-04-02T09:51:14;96042.13;;;6.12;100.00
53916;BME280;39827;49.652;18.770;2023-04-02T09:54:10;96051.00;;;6.06;99.98
53916;BME280;39827;49.652;18.770;2023-04-02T09:57:03;96060.47;;;6.07;99.81
53916;BME280;39827;49.652;18.770;2023-04-02T09:59:35;96068.59;;;6.05;99.54
53916;BME280;39827;49.652;18.770;2023-04-02T10:02:02;96062.41;;;5.99;100.00
53916;BME280;39827;49.652;18.770;2023-04-02T10:04:56;96069.25;;;5.83;100.00
53916;BME280;39827;49.652;18.770;2023-04-02T10:07:39;96074.19;;;6.09;100.00
53916;BME280;39827;49.652;18.770;2023-04-02T10:22:21;96092.94;;;6.00;98.62
53916;BME280;39827;49.652;18.770;2023-04-02T10:24:48;96105.03;;;6.02;98.43
53916;BME280;39827;49.652;18.770;2023-04-02T10:27:23;96105.38;;;6.05;98.42
53916;BME280;39827;49.652;18.770;2023-04-02T10:30:23;96108.75;;;5.89;97.80
53916;BME280;39827;49.652;18.770;2023-04-02T10:32:58;96117.56;;;5.65;98.54
53916;BME280;39827;49.652;18.770;2023-04-02T10:44:38;96123.91;;;5.69;100.00
53916;BME280;39827;49.652;18.770;2023-04-02T10:47:24;96111.06;;;5.85;100.00
53916;BME280;39827;49.652;18.770;2023-04-02T10:50:07;96118.34;;;5.66;99.43
53916;BME280;39827;49.652;18.770;2023-04-02T10:55:22;96108.47;;;5.44;100.00
53916;BME280;39827;49.652;18.770;2023-04-02T10:57:50;96120.69;;;5.50;99.91
53916;BME280;39827;49.652;18.770;2023-04-02T11:00:20;96122.56;;;5.67;100.00
53916;BME280;39827;49.652;18.770;2023-04-02T11:02:55;96115.56;;;5.72;100.00
53916;BME280;39827;49.652;18.770;2023-04-02T11:07:56;96119.16;;;5.66;99.81
53916;BME280;39827;49.652;18.770;2023-04-02T11:10:24;96122.13;;;5.58;100.00
53916;BME280;39827;49.652;18.770;2023-04-02T11:12:56;96136.69;;;5.37;99.98
53916;BME280;39827;49.652;18.770;2023-04-02T11:15:43;96145.50;;;5.30;100.00
53916;BME280;39827;49.652;18.770;2023-04-02T11:18:26;96145.44;;;5.13;100.00
53916;BME280;39827;49.652;18.770;2023-04-02T11:20:58;96147.72;;;4.86;100.00
53916;BME280;39827;49.652;18.770;2023-04-02T11:23:37;96150.66;;;4.53;100.00
53916;BME280;39827;49.652;18.770;2023-04-02T11:26:28;96165.84;;;4.63;100.00
53916;BME280;39827;49.652;18.770;2023-04-02T11:37:40;96168.94;;;4.84;100.00
53916;BME280;39827;49.652;18.770;2023-04-02T11:42:50;96171.22;;;4.80;100.00
53916;BME280;39827;49.652;18.770;2023-04-02T11:50:53;96184.34;;;4.80;100.00
53916;BME280;39827;49.652;18.770;2023-04-02T11:53:29;96194.47;;;4.89;100.00
53916;BME280;39827;49.652;18.770;2023-04-02T12:04:27;96178.38;;;4.49;100.00
53916;BME280;39827;49.652;18.770;2023-04-02T12:10:33;96200.88;;;4.81;100.00
53916;BME280;39827;49.652;18.770;2023-04-02T12:13:18;96195.50;;;4.76;100.00
53916;BME280;39827;49.652;18.770;2023-04-02T12:15:45;96197.22;;;4.82;100.00
53916;BME280;39827;49.652;18.770;2023-04-02T12:18:21;96207.38;;;4.90;100.00
53916;BME280;39827;49.652;18.770;2023-04-02T12:20:57;96208.84;;;4.86;100.00
53916;BME280;39827;49.652;18.770;2023-04-02T12:23:35;96201.22;;;4.85;100.00
53916;BME280;39827;49.652;18.770;2023-04-02T12:26:05;96208.19;;;4.79;100.00
53916;BME280;39827;49.652;18.770;2023-04-02T12:28:31;96209.75;;;4.68;100.00
53916;BME280;39827;49.652;18.770;2023-04-02T12:31:12;96190.03;;;4.65;100.00
53916;BME280;39827;49.652;18.770;2023-04-02T12:33:41;96209.88;;;4.73;100.00
53916;BME280;39827;49.652;18.770;2023-04-02T12:36:18;96219.94;;;4.88;100.00
53916;BME280;39827;49.652;18.770;2023-04-02T12:38:49;96219.00;;;4.82;100.00
53916;BME280;39827;49.652;18.770;2023-04-02T12:41:36;96225.72;;;4.90;100.00
53916;BME280;39827;49.652;18.770;2023-04-02T12:44:05;96213.66;;;4.77;100.00
53916;BME280;39827;49.652;18.770;2023-04-02T12:46:36;96219.59;;;4.85;100.00
53916;BME280;39827;49.652;18.770;2023-04-02T12:49:07;96226.16;;;4.75;100.00
53916;BME280;39827;49.652;18.770;2023-04-02T12:51:36;96223.44;;;4.82;100.00
53916;BME280;39827;49.652;18.770;2023-04-02T12:54:02;96202.91;;;4.67;100.00
53916;BME280;39827;49.652;18.770;2023-04-02T12:56:28;96235.34;;;4.85;100.00
53916;BME280;39827;49.652;18.770;2023-04-02T12:58:58;96220.59;;;4.83;100.00
53916;BME280;39827;49.652;18.770;2023-04-02T13:01:26;96215.00;;;4.68;100.00
53916;BME280;39827;49.652;18.770;2023-04-02T13:04:08;96222.66;;;4.81;100.00
53916;BME280;39827;49.652;18.770;2023-04-02T13:06:37;96232.44;;;4.62;100.00
53916;BME280;39827;49.652;18.770;2023-04-02T13:09:27;96229.81;;;4.74;100.00
53916;BME280;39827;49.652;18.770;2023-04-02T13:11:53;96229.13;;;4.67;100.00
53916;BME280;39827;49.652;18.770;2023-04-02T13:14:19;96236.91;;;4.74;100.00
53916;BME280;39827;49.652;18.770;2023-04-02T13:16:46;96232.88;;;4.71;100.00
53916;BME280;39827;49.652;18.770;2023-04-02T13:21:49;96244.78;;;4.86;100.00
53916;BME280;39827;49.652;18.770;2023-04-02T13:24:35;96243.88;;;5.04;100.00
53916;BME280;39827;49.652;18.770;2023-04-02T13:27:01;96252.78;;;5.03;100.00
53916;BME280;39827;49.652;18.770;2023-04-02T13:29:35;96250.16;;;5.03;100.00
53916;BME280;39827;49.652;18.770;2023-04-02T13:32:05;96243.41;;;4.83;100.00
53916;BME280;39827;49.652;18.770;2023-04-02T13:34:31;96242.72;;;4.64;100.00
53916;BME280;39827;49.652;18.770;2023-04-02T13:36:57;96251.50;;;4.69;100.00
53916;BME280;39827;49.652;18.770;2023-04-02T13:39:23;96256.59;;;4.64;100.00
53916;BME280;39827;49.652;18.770;2023-04-02T13:41:51;96263.06;;;4.50;100.00
53916;BME280;39827;49.652;18.770;2023-04-02T13:44:24;96265.38;;;4.58;100.00
53916;BME280;39827;49.652;18.770;2023-04-02T13:46:52;96271.28;;;4.53;100.00
53916;BME280;39827;49.652;18.770;2023-04-02T13:49:18;96273.00;;;4.48;100.00
53916;BME280;39827;49.652;18.770;2023-04-02T13:51:48;96262.94;;;4.45;100.00
53916;BME280;39827;49.652;18.770;2023-04-02T13:54:42;96274.00;;;4.47;100.00
53916;BME280;39827;49.652;18.770;2023-04-02T13:57:10;96280.63;;;4.19;100.00
53916;BME280;39827;49.652;18.770;2023-04-02T13:59:36;96276.31;;;4.24;100.00
53916;BME280;39827;49.652;18.770;2023-04-02T14:02:07;96274.41;;;4.32;100.00
53916;BME280;39827;49.652;18.770;2023-04-02T14:04:38;96288.72;;;4.48;100.00
53916;BME280;39827;49.652;18.770;2023-04-02T14:10:26;96300.69;;;4.25;100.00
53916;BME280;39827;49.652;18.770;2023-04-02T14:24:32;96320.03;;;4.42;100.00
53916;BME280;39827;49.652;18.770;2023-04-02T14:27:14;96309.84;;;4.34;100.00
53916;BME280;39827;49.652;18.770;2023-04-02T14:29:49;96310.69;;;4.47;100.00
53916;BME280;39827;49.652;18.770;2023-04-02T14:32:30;96314.13;;;4.47;100.00
53916;BME280;39827;49.652;18.770;2023-04-02T14:46:02;96326.25;;;4.29;100.00
53916;BME280;39827;49.652;18.770;2023-04-02T14:51:22;96332.56;;;4.40;100.00
53916;BME280;39827;49.652;18.770;2023-04-02T14:56:20;96334.06;;;4.17;100.00
53916;BME280;39827;49.652;18.770;2023-04-02T14:58:53;96329.38;;;4.20;100.00
53916;BME280;39827;49.652;18.770;2023-04-02T15:01:24;96345.25;;;4.06;100.00
53916;BME280;39827;49.652;18.770;2023-04-02T15:03:55;96334.72;;;3.94;100.00
53916;BME280;39827;49.652;18.770;2023-04-02T15:06:26;96338.13;;;3.95;100.00
53916;BME280;39827;49.652;18.770;2023-04-02T15:09:05;96350.94;;;4.03;100.00
53916;BME280;39827;49.652;18.770;2023-04-02T15:11:36;96347.66;;;4.08;100.00
53916;BME280;39827;49.652;18.770;2023-04-02T15:14:21;96359.97;;;4.26;100.00
53916;BME280;39827;49.652;18.770;2023-04-02T15:16:47;96360.78;;;4.08;100.00
53916;BME280;39827;49.652;18.770;2023-04-02T15:19:15;96370.56;;;4.12;100.00
53916;BME280;39827;49.652;18.770;2023-04-02T15:27:09;96360.97;;;4.06;100.00
53916;BME280;39827;49.652;18.770;2023-04-02T15:32:40;96369.19;;;3.91;100.00
53916;BME280;39827;49.652;18.770;2023-04-02T15:38:23;96382.00;;;3.99;100.00
53916;BME280;39827;49.652;18.770;2023-04-02T15:41:05;96378.00;;;3.97;100.00
53916;BME280;39827;49.652;18.770;2023-04-02T15:46:20;96394.09;;;4.00;100.00
53916;BME280;39827;49.652;18.770;2023-04-02T15:55:03;96399.38;;;3.75;100.00
53916;BME280;39827;49.652;18.770;2023-04-02T15:58:22;96407.81;;;3.77;100.00
53916;BME280;39827;49.652;18.770;2023-04-02T16:01:13;96411.44;;;3.76;100.00
53916;BME280;39827;49.652;18.770;2023-04-02T16:07:00;96427.16;;;3.76;100.00
53916;BME280;39827;49.652;18.770;2023-04-02T16:12:13;96416.03;;;3.55;100.00
53916;BME280;39827;49.652;18.770;2023-04-02T16:14:43;96425.84;;;3.67;100.00
53916;BME280;39827;49.652;18.770;2023-04-02T16:17:15;96420.19;;;3.70;100.00
53916;BME280;39827;49.652;18.770;2023-04-02T16:19:58;96437.91;;;3.68;100.00
53916;BME280;39827;49.652;18.770;2023-04-02T16:22:28;96439.69;;;3.74;100.00
53916;BME280;39827;49.652;18.770;2023-04-02T16:25:06;96436.66;;;3.70;100.00
53916;BME280;39827;49.652;18.770;2023-04-02T16:27:40;96450.84;;;3.62;100.00
53916;BME280;39827;49.652;18.770;2023-04-02T16:38:50;96452.06;;;3.60;100.00
53916;BME280;39827;49.652;18.770;2023-04-02T16:44:19;96461.03;;;3.71;100.00
53916;BME280;39827;49.652;18.770;2023-04-02T16:46:57;96451.75;;;3.49;100.00
53916;BME280;39827;49.652;18.770;2023-04-02T16:49:41;96475.25;;;3.56;100.00
53916;BME280;39827;49.652;18.770;2023-04-02T16:52:26;96472.09;;;3.47;100.00
53916;BME280;39827;49.652;18.770;2023-04-02T17:00:41;96479.41;;;3.38;100.00
53916;BME280;39827;49.652;18.770;2023-04-02T17:06:06;96488.94;;;3.26;100.00
53916;BME280;39827;49.652;18.770;2023-04-02T17:08:43;96489.59;;;3.15;100.00